Time;durP1;ratioP1;P1;durP2;ratioP2;P2;SDS_P1;SDS_P2;PMS_P1;PMS_P2;Temp;Humidity;BMP_temperature;BMP_pressure;BME280_temperature;BME280_humidity;BME280_pressure;Samples;Min_cycle;Max_cycle;Signal;HPM_P1;HPM_P2
2022/04/14 00:00:41;;;;;;;3.90;1.13;;;;;;;;;;5041671;28;20040;-59
2022/04/14 00:03:08;;;;;;;2.22;0.88;;;;;;;;;;5041738;28;21805;-58
2022/04/14 00:05:34;;;;;;;2.25;0.88;;;;;;;;;;5015080;28;20037;-60
2022/04/14 00:08:01;;;;;;;2.58;0.90;;;;;;;;;;5042417;28;20085;-60
2022/04/14 00:10:28;;;;;;;1.73;0.77;;;;;;;;;;5041882;28;20064;-58
2022/04/14 00:12:54;;;;;;;1.90;0.77;;;;;;;;;;5041074;28;20032;-61
2022/04/14 00:15:21;;;;;;;3.83;1.67;;;;;;;;;;5041992;28;20040;-58
2022/04/14 00:17:48;;;;;;;3.30;1.13;;;;;;;;;;5041745;28;20147;-60
2022/04/14 00:20:14;;;;;;;7.38;1.60;;;;;;;;;;5041824;28;20029;-60
2022/04/14 00:22:41;;;;;;;4.05;1.08;;;;;;;;;;5042193;28;20041;-60
2022/04/14 00:25:10;;;;;;;2.97;1.02;;;;;;;;;;5021757;28;20029;-56
2022/04/14 00:27:37;;;;;;;7.35;2.53;;;;;;;;;;5038597;28;20045;-59
2022/04/14 00:30:04;;;;;;;2.33;0.90;;;;;;;;;;5040043;28;20413;-60
2022/04/14 00:32:31;;;;;;;6.28;0.90;;;;;;;;;;5039323;28;20041;-59
2022/04/14 00:34:58;;;;;;;1.75;0.70;;;;;;;;;;5039426;28;20036;-60
2022/04/14 00:37:25;;;;;;;2.65;0.90;;;;;;;;;;5040047;28;20510;-60
2022/04/14 00:39:51;;;;;;;1.27;0.50;;;;;;;;;;5041311;28;20048;-60
2022/04/14 00:42:23;;;;;;;2.13;0.85;;;;;;;;;;5039344;28;20049;-62
2022/04/14 00:44:50;;;;;;;1.67;0.70;;;;;;;;;;5041344;28;20118;-60
2022/04/14 00:47:17;;;;;;;3.00;1.10;;;;;;;;;;5040935;28;20417;-59
2022/04/14 00:49:44;;;;;;;1.83;0.65;;;;;;;;;;5040304;28;20029;-58
2022/04/14 00:52:11;;;;;;;2.38;0.88;;;;;;;;;;5039865;28;20549;-60
2022/04/14 00:54:38;;;;;;;2.05;0.90;;;;;;;;;;5040338;28;20441;-58
2022/04/14 00:57:04;;;;;;;2.85;1.02;;;;;;;;;;5039403;28;20049;-61
2022/04/14 00:59:32;;;;;;;1.58;0.75;;;;;;;;;;5040092;28;20129;-60
2022/04/14 01:01:58;;;;;;;1.58;0.70;;;;;;;;;;5040130;28;20034;-59
2022/04/14 01:04:26;;;;;;;3.35;1.25;;;;;;;;;;5039528;28;20041;-60
2022/04/14 01:06:53;;;;;;;1.63;0.60;;;;;;;;;;5019784;28;20061;-60
2022/04/14 01:09:20;;;;;;;3.10;1.10;;;;;;;;;;5039449;28;20037;-59
2022/04/14 01:11:47;;;;;;;2.42;1.05;;;;;;;;;;5040781;28;20056;-59
2022/04/14 01:14:26;;;;;;;1.02;0.50;;;;;;;;;;5040507;28;20037;-61
2022/04/14 01:16:56;;;;;;;1.85;0.82;;;;;;;;;;5039478;28;20363;-60
2022/04/14 01:19:23;;;;;;;1.63;0.52;;;;;;;;;;5038487;28;20184;-58
2022/04/14 01:22:11;;;;;;;2.08;0.68;;;;;;;;;;5041030;28;20041;-59
2022/04/14 01:24:38;;;;;;;3.90;1.10;;;;;;;;;;5040458;28;20128;-62
2022/04/14 01:27:05;;;;;;;1.30;0.57;;;;;;;;;;5039467;28;20586;-59
2022/04/14 01:29:32;;;;;;;3.55;1.30;;;;;;;;;;5040162;28;20060;-58
2022/04/14 01:32:02;;;;;;;2.22;0.80;;;;;;;;;;5022832;28;20087;-57
2022/04/14 01:34:30;;;;;;;1.60;0.57;;;;;;;;;;5038139;28;20083;-63
2022/04/14 01:36:57;;;;;;;4.97;0.90;;;;;;;;;;5016406;28;20062;-61
2022/04/14 01:39:24;;;;;;;1.95;0.60;;;;;;;;;;5035606;28;20156;-61
2022/04/14 01:41:51;;;;;;;2.92;1.02;;;;;;;;;;5039995;28;20423;-60
2022/04/14 01:44:17;;;;;;;3.38;1.05;;;;;;;;;;5038313;28;20045;-61
2022/04/14 01:47:04;;;;;;;2.55;0.85;;;;;;;;;;4980926;28;20064;-62
2022/04/14 01:49:31;;;;;;;2.83;1.15;;;;;;;;;;4981559;28;20829;-60
2022/04/14 01:51:57;;;;;;;2.03;0.75;;;;;;;;;;4981466;28;20041;-60
2022/04/14 01:54:24;;;;;;;10.00;1.52;;;;;;;;;;4981438;28;20042;-60
2022/04/14 01:56:51;;;;;;;5.03;1.45;;;;;;;;;;4982246;28;20046;-59
2022/04/14 01:59:18;;;;;;;4.63;1.33;;;;;;;;;;4981239;28;20124;-60
2022/04/14 02:01:44;;;;;;;5.80;1.35;;;;;;;;;;4980117;28;20487;-59
2022/04/14 02:04:11;;;;;;;2.67;1.10;;;;;;;;;;4984173;28;20046;-60
2022/04/14 02:06:38;;;;;;;7.35;1.45;;;;;;;;;;4983942;28;20081;-59
2022/04/14 02:09:05;;;;;;;3.70;1.30;;;;;;;;;;4987963;28;20038;-59
2022/04/14 02:11:32;;;;;;;5.30;2.40;;;;;;;;;;4985847;28;20046;-59
2022/04/14 02:13:59;;;;;;;4.40;1.67;;;;;;;;;;4985910;28;20148;-60
2022/04/14 02:16:26;;;;;;;2.13;0.95;;;;;;;;;;4983763;28;20125;-59
2022/04/14 02:18:52;;;;;;;2.20;1.08;;;;;;;;;;5033300;28;20041;-62
2022/04/14 02:21:19;;;;;;;2.40;1.08;;;;;;;;;;5043761;28;20048;-61
2022/04/14 02:23:46;;;;;;;4.40;1.20;;;;;;;;;;5041531;28;20041;-61
2022/04/14 02:26:13;;;;;;;6.82;0.95;;;;;;;;;;5043446;28;20457;-61
2022/04/14 02:28:40;;;;;;;2.08;1.02;;;;;;;;;;5041496;28;20504;-58
2022/04/14 02:31:06;;;;;;;1.25;1.08;;;;;;;;;;5045803;28;20417;-60
2022/04/14 02:33:33;;;;;;;3.63;0.73;;;;;;;;;;5044050;28;20055;-62
2022/04/14 02:36:00;;;;;;;2.42;0.65;;;;;;;;;;5044722;28;20120;-61
2022/04/14 02:38:26;;;;;;;14.05;1.23;;;;;;;;;;5041534;28;20132;-60
2022/04/14 02:40:53;;;;;;;2.55;0.77;;;;;;;;;;5043615;28;20983;-60
2022/04/14 02:43:21;;;;;;;3.67;0.90;;;;;;;;;;5042871;28;20044;-61
2022/04/14 02:45:48;;;;;;;0.55;0.40;;;;;;;;;;5041564;28;20634;-61
2022/04/14 02:48:14;;;;;;;1.77;0.82;;;;;;;;;;5043873;28;20413;-61
2022/04/14 02:50:43;;;;;;;3.30;1.42;;;;;;;;;;5044006;28;20630;-63
2022/04/14 02:53:11;;;;;;;4.63;1.77;;;;;;;;;;5044478;28;20323;-60
2022/04/14 02:55:37;;;;;;;5.28;1.65;;;;;;;;;;5019485;28;20047;-58
2022/04/14 02:58:04;;;;;;;3.15;1.08;;;;;;;;;;5042907;28;20051;-59
2022/04/14 03:00:31;;;;;;;4.80;2.00;;;;;;;;;;5040370;28;20036;-59
2022/04/14 03:02:59;;;;;;;2.20;0.68;;;;;;;;;;5041899;28;20140;-62
2022/04/14 03:05:26;;;;;;;1.45;0.60;;;;;;;;;;5042497;28;20839;-59
2022/04/14 03:07:52;;;;;;;4.00;1.45;;;;;;;;;;5043828;28;20053;-60
2022/04/14 03:10:19;;;;;;;2.72;0.95;;;;;;;;;;5045719;28;20036;-59
2022/04/14 03:12:46;;;;;;;3.80;1.40;;;;;;;;;;5041710;28;20090;-58
2022/04/14 03:15:14;;;;;;;6.45;1.42;;;;;;;;;;5043969;28;20541;-60
2022/04/14 03:17:41;;;;;;;2.00;0.77;;;;;;;;;;5041836;28;20041;-59
2022/04/14 03:20:08;;;;;;;2.25;1.15;;;;;;;;;;5045681;28;20532;-62
2022/04/14 03:22:35;;;;;;;1.15;0.60;;;;;;;;;;5043941;28;20037;-62
2022/04/14 03:25:03;;;;;;;2.22;0.93;;;;;;;;;;5044917;28;20060;-62
2022/04/14 03:27:30;;;;;;;2.67;0.98;;;;;;;;;;5043692;28;20064;-62
2022/04/14 03:29:56;;;;;;;1.10;0.63;;;;;;;;;;5041537;28;20093;-61
2022/04/14 03:32:24;;;;;;;1.63;0.60;;;;;;;;;;5042401;28;20045;-58
2022/04/14 03:34:51;;;;;;;2.13;0.80;;;;;;;;;;5041206;28;20040;-60
2022/04/14 03:37:18;;;;;;;3.67;1.23;;;;;;;;;;5043479;28;20048;-60
2022/04/14 03:39:45;;;;;;;3.78;1.10;;;;;;;;;;5041921;28;20037;-61
2022/04/14 03:42:12;;;;;;;2.80;1.08;;;;;;;;;;5041882;28;20036;-61
2022/04/14 03:44:38;;;;;;;1.77;0.60;;;;;;;;;;5040383;28;20097;-62
2022/04/14 03:47:05;;;;;;;1.23;0.63;;;;;;;;;;5022025;28;20632;-61
2022/04/14 03:49:32;;;;;;;2.80;0.80;;;;;;;;;;5042356;28;20456;-62
2022/04/14 03:51:59;;;;;;;3.45;1.30;;;;;;;;;;5041121;28;20078;-61
2022/04/14 03:54:25;;;;;;;1.42;0.70;;;;;;;;;;5040359;28;20039;-62
2022/04/14 03:56:53;;;;;;;1.60;0.65;;;;;;;;;;5041670;28;20040;-63
2022/04/14 03:59:20;;;;;;;4.13;0.98;;;;;;;;;;5041233;28;20062;-62
2022/04/14 04:01:47;;;;;;;4.50;1.30;;;;;;;;;;5039484;28;20041;-59
2022/04/14 04:04:13;;;;;;;1.60;0.68;;;;;;;;;;5039598;28;20205;-60
2022/04/14 04:06:40;;;;;;;2.92;1.23;;;;;;;;;;5040584;28;20053;-59
2022/04/14 04:09:07;;;;;;;3.78;1.10;;;;;;;;;;5018918;28;20455;-61
2022/04/14 04:11:33;;;;;;;5.05;1.10;;;;;;;;;;5041181;28;20038;-57
2022/04/14 04:14:00;;;;;;;3.72;1.38;;;;;;;;;;5041088;28;20087;-60
2022/04/14 04:16:27;;;;;;;1.75;0.80;;;;;;;;;;5041527;28;20211;-59
2022/04/14 04:18:53;;;;;;;5.10;1.30;;;;;;;;;;5041924;28;20067;-59
2022/04/14 04:21:20;;;;;;;4.82;1.55;;;;;;;;;;5039901;28;20106;-60
2022/04/14 04:23:47;;;;;;;3.42;1.40;;;;;;;;;;5041469;28;20096;-59
2022/04/14 04:26:14;;;;;;;2.75;0.98;;;;;;;;;;5040169;28;21624;-60
2022/04/14 04:28:41;;;;;;;2.55;1.23;;;;;;;;;;5039834;28;20052;-58
2022/04/14 04:31:07;;;;;;;3.88;1.50;;;;;;;;;;5021043;28;20115;-59
2022/04/14 04:33:34;;;;;;;3.33;1.42;;;;;;;;;;5041600;28;20041;-60
2022/04/14 04:36:01;;;;;;;5.18;1.27;;;;;;;;;;5041211;28;20033;-61
2022/04/14 04:38:27;;;;;;;2.28;0.88;;;;;;;;;;5041613;28;20045;-61
2022/04/14 04:40:56;;;;;;;1.45;0.70;;;;;;;;;;5042552;28;20043;-61
2022/04/14 04:43:22;;;;;;;6.82;1.10;;;;;;;;;;5041310;28;20028;-59
2022/04/14 04:45:49;;;;;;;3.78;1.92;;;;;;;;;;5039375;28;20584;-58
2022/04/14 04:48:16;;;;;;;6.53;2.13;;;;;;;;;;5041020;28;20437;-60
2022/04/14 04:50:43;;;;;;;3.30;1.52;;;;;;;;;;5040809;28;20109;-60
2022/04/14 04:53:10;;;;;;;4.72;1.90;;;;;;;;;;5040222;28;20130;-59
2022/04/14 04:55:36;;;;;;;2.30;1.02;;;;;;;;;;5021297;28;20755;-59
2022/04/14 04:58:03;;;;;;;12.32;2.03;;;;;;;;;;5040498;28;20049;-60
2022/04/14 05:00:30;;;;;;;2.75;1.20;;;;;;;;;;5040365;28;20090;-60
2022/04/14 05:02:57;;;;;;;3.63;1.63;;;;;;;;;;5041199;28;20041;-60
2022/04/14 05:05:24;;;;;;;2.05;0.85;;;;;;;;;;5039185;28;20095;-60
2022/04/14 05:07:50;;;;;;;1.58;0.63;;;;;;;;;;5041366;28;20060;-60
2022/04/14 05:10:17;;;;;;;6.28;1.58;;;;;;;;;;5042169;28;20041;-59
2022/04/14 05:12:44;;;;;;;3.75;1.67;;;;;;;;;;5040694;28;20402;-60
2022/04/14 05:15:11;;;;;;;4.45;1.67;;;;;;;;;;5040485;28;20074;-60
2022/04/14 05:17:38;;;;;;;12.00;1.92;;;;;;;;;;5040756;28;20041;-60
2022/04/14 05:20:05;;;;;;;2.85;1.23;;;;;;;;;;5041268;28;20041;-60
2022/04/14 05:22:31;;;;;;;4.22;1.38;;;;;;;;;;5019070;28;20481;-58
2022/04/14 05:24:58;;;;;;;3.22;1.40;;;;;;;;;;5039493;28;20045;-60
2022/04/14 05:27:25;;;;;;;7.50;2.53;;;;;;;;;;5038555;28;20413;-60
2022/04/14 05:29:52;;;;;;;4.32;1.70;;;;;;;;;;5041475;28;20409;-59
2022/04/14 05:32:18;;;;;;;10.93;1.73;;;;;;;;;;5022498;28;20052;-60
2022/04/14 05:34:45;;;;;;;10.90;1.63;;;;;;;;;;5032809;28;20045;-61
2022/04/14 05:37:12;;;;;;;2.10;0.88;;;;;;;;;;5044488;28;20051;-59
2022/04/14 05:39:42;;;;;;;1.98;0.93;;;;;;;;;;5030524;28;20055;-59
2022/04/14 05:42:14;;;;;;;8.02;1.30;;;;;;;;;;5049508;28;20055;-59
2022/04/14 05:44:41;;;;;;;2.05;0.88;;;;;;;;;;5026609;28;20044;-58
2022/04/14 05:47:08;;;;;;;3.15;1.13;;;;;;;;;;5041754;28;20056;-58
2022/04/14 05:49:35;;;;;;;4.20;1.67;;;;;;;;;;5047663;28;20068;-58
2022/04/14 05:52:02;;;;;;;4.65;1.17;;;;;;;;;;5046605;28;20060;-62
2022/04/14 05:54:29;;;;;;;3.60;1.65;;;;;;;;;;5046014;28;20037;-60
2022/04/14 05:57:08;;;;;;;3.40;1.25;;;;;;;;;;5002803;28;20087;-62
2022/04/14 05:59:35;;;;;;;1.92;1.02;;;;;;;;;;5004019;28;20058;-60
2022/04/14 06:02:11;;;;;;;3.90;1.27;;;;;;;;;;5004425;28;20050;-61
2022/04/14 06:04:37;;;;;;;1.90;0.75;;;;;;;;;;5000886;28;20065;-59
2022/04/14 06:07:04;;;;;;;1.73;0.93;;;;;;;;;;5001627;28;21000;-61
2022/04/14 06:09:31;;;;;;;2.05;0.90;;;;;;;;;;5002522;28;20080;-60
2022/04/14 06:11:59;;;;;;;3.63;1.40;;;;;;;;;;4995001;28;20209;-60
2022/04/14 06:14:26;;;;;;;4.00;1.25;;;;;;;;;;5004515;28;20741;-60
2022/04/14 06:16:53;;;;;;;3.67;1.55;;;;;;;;;;5001814;28;20130;-59
2022/04/14 06:19:20;;;;;;;4.43;2.38;;;;;;;;;;5002036;28;20058;-62
2022/04/14 06:21:47;;;;;;;8.00;2.58;;;;;;;;;;5003283;28;20041;-61
2022/04/14 06:24:14;;;;;;;5.88;3.00;;;;;;;;;;5003277;28;20049;-60
2022/04/14 06:26:40;;;;;;;4.45;2.20;;;;;;;;;;5001756;28;20188;-61
2022/04/14 06:29:07;;;;;;;13.75;3.00;;;;;;;;;;5046972;28;20519;-59
2022/04/14 06:31:35;;;;;;;5.30;2.92;;;;;;;;;;5047598;28;20051;-60
2022/04/14 06:34:02;;;;;;;5.03;2.75;;;;;;;;;;5048410;28;20049;-60
2022/04/14 06:36:29;;;;;;;5.38;2.67;;;;;;;;;;5029164;28;20045;-61
2022/04/14 06:38:56;;;;;;;6.75;2.85;;;;;;;;;;5048425;28;20564;-59
2022/04/14 06:41:23;;;;;;;5.15;2.55;;;;;;;;;;5047092;28;20036;-59
2022/04/14 06:43:54;;;;;;;5.70;2.90;;;;;;;;;;5045718;28;20029;-60
2022/04/14 06:46:20;;;;;;;8.13;2.85;;;;;;;;;;5047518;28;20051;-60
2022/04/14 06:48:48;;;;;;;6.65;3.55;;;;;;;;;;5045543;28;20389;-60
2022/04/14 06:51:15;;;;;;;2.72;1.40;;;;;;;;;;5039756;28;20531;-61
2022/04/14 06:53:43;;;;;;;2.88;1.58;;;;;;;;;;5043490;28;20071;-56
2022/04/14 06:56:10;;;;;;;4.82;2.20;;;;;;;;;;5023092;28;20055;-60
2022/04/14 06:58:37;;;;;;;12.40;3.53;;;;;;;;;;5042763;28;20037;-59
2022/04/14 07:01:05;;;;;;;8.38;3.53;;;;;;;;;;5043566;28;20167;-60
2022/04/14 07:03:35;;;;;;;2.80;1.45;;;;;;;;;;5034066;28;20060;-59
2022/04/14 07:06:01;;;;;;;3.60;2.13;;;;;;;;;;5041763;28;20041;-60
2022/04/14 07:08:29;;;;;;;6.63;3.13;;;;;;;;;;5043759;28;20053;-59
2022/04/14 07:10:59;;;;;;;2.72;1.60;;;;;;;;;;5041843;28;20116;-62
2022/04/14 07:13:26;;;;;;;2.90;1.40;;;;;;;;;;5032486;28;20049;-63
2022/04/14 07:15:55;;;;;;;5.70;1.83;;;;;;;;;;5043117;28;20890;-62
2022/04/14 07:18:23;;;;;;;12.43;2.28;;;;;;;;;;5046802;28;20066;-60
2022/04/14 07:20:50;;;;;;;2.30;0.82;;;;;;;;;;5016266;28;20051;-61
2022/04/14 07:23:17;;;;;;;5.55;2.20;;;;;;;;;;5044681;28;20041;-60
2022/04/14 07:25:44;;;;;;;5.72;2.35;;;;;;;;;;5025801;28;20076;-60
2022/04/14 07:28:11;;;;;;;5.32;2.50;;;;;;;;;;5051704;28;20051;-61
2022/04/14 07:30:39;;;;;;;4.43;2.28;;;;;;;;;;5050322;28;20045;-60
2022/04/14 07:33:10;;;;;;;3.85;1.88;;;;;;;;;;5044156;28;20037;-61
2022/04/14 07:35:46;;;;;;;5.45;2.50;;;;;;;;;;4983914;28;20123;-61
2022/04/14 07:38:16;;;;;;;4.53;1.75;;;;;;;;;;5044731;28;20048;-61
2022/04/14 07:40:43;;;;;;;5.45;2.78;;;;;;;;;;5041296;28;20068;-62
2022/04/14 07:43:09;;;;;;;3.88;2.10;;;;;;;;;;5042118;28;21113;-60
2022/04/14 07:45:36;;;;;;;3.55;2.08;;;;;;;;;;5030575;28;20088;-60
2022/04/14 07:48:04;;;;;;;3.85;2.50;;;;;;;;;;5041872;28;20110;-59
2022/04/14 07:50:32;;;;;;;5.97;2.25;;;;;;;;;;5041488;28;20076;-64
2022/04/14 07:52:59;;;;;;;5.75;2.35;;;;;;;;;;5042320;28;20044;-61
2022/04/14 07:55:28;;;;;;;4.97;2.38;;;;;;;;;;5040198;28;20095;-61
2022/04/14 07:57:56;;;;;;;4.60;2.33;;;;;;;;;;5041188;28;20056;-61
2022/04/14 08:00:23;;;;;;;4.35;2.13;;;;;;;;;;5040919;28;20032;-60
2022/04/14 08:02:53;;;;;;;4.35;2.15;;;;;;;;;;5040730;28;20127;-60
2022/04/14 08:05:22;;;;;;;7.10;2.78;;;;;;;;;;5040656;28;20512;-62
2022/04/14 08:07:49;;;;;;;4.78;2.45;;;;;;;;;;5040334;28;20222;-59
2022/04/14 08:10:16;;;;;;;5.88;2.70;;;;;;;;;;5042415;28;20078;-59
2022/04/14 08:12:43;;;;;;;11.45;2.75;;;;;;;;;;5039893;28;20782;-60
2022/04/14 08:15:12;;;;;;;4.28;2.78;;;;;;;;;;5039994;28;20036;-57
2022/04/14 08:17:42;;;;;;;8.18;2.80;;;;;;;;;;5039576;28;20045;-60
2022/04/14 08:20:10;;;;;;;1.67;1.15;;;;;;;;;;5042776;28;20148;-60
2022/04/14 08:22:47;;;;;;;10.45;1.42;;;;;;;;;;5042894;28;20075;-60
2022/04/14 08:25:14;;;;;;;1.67;1.00;;;;;;;;;;5042937;28;20171;-59
2022/04/14 08:27:41;;;;;;;4.40;2.38;;;;;;;;;;5041928;28;20070;-58
2022/04/14 08:30:08;;;;;;;9.73;4.53;;;;;;;;;;5043651;28;20044;-60
2022/04/14 08:32:35;;;;;;;5.82;3.70;;;;;;;;;;5044759;28;20067;-57
2022/04/14 08:35:03;;;;;;;3.67;1.98;;;;;;;;;;5041720;28;20108;-59
2022/04/14 08:37:29;;;;;;;9.63;3.20;;;;;;;;;;5043022;28;20585;-59
2022/04/14 08:39:57;;;;;;;7.35;1.92;;;;;;;;;;5043591;28;20041;-59
2022/04/14 08:42:32;;;;;;;4.95;1.80;;;;;;;;;;5041070;28;20037;-59
2022/04/14 08:45:03;;;;;;;4.80;1.23;;;;;;;;;;5042801;28;20047;-61
2022/04/14 08:47:30;;;;;;;4.13;1.83;;;;;;;;;;5041604;28;20055;-61
2022/04/14 08:49:58;;;;;;;4.78;1.83;;;;;;;;;;5042204;28;20041;-61
2022/04/14 08:52:26;;;;;;;4.97;1.80;;;;;;;;;;5044838;28;20470;-62
2022/04/14 08:54:54;;;;;;;3.28;1.38;;;;;;;;;;5043594;28;20515;-60
2022/04/14 08:57:22;;;;;;;2.70;1.15;;;;;;;;;;5042354;28;20361;-62
2022/04/14 08:59:50;;;;;;;4.38;1.60;;;;;;;;;;5043815;28;20480;-59
2022/04/14 09:02:23;;;;;;;4.15;1.80;;;;;;;;;;5042446;28;20044;-60
2022/04/14 09:04:50;;;;;;;3.47;1.17;;;;;;;;;;5042396;28;20032;-60
2022/04/14 09:07:17;;;;;;;3.30;1.33;;;;;;;;;;5042929;28;20072;-60
2022/04/14 09:09:46;;;;;;;5.25;1.35;;;;;;;;;;5042719;28;20096;-60
2022/04/14 09:12:13;;;;;;;7.57;1.33;;;;;;;;;;5042400;28;20047;-61
2022/04/14 09:14:40;;;;;;;2.67;1.25;;;;;;;;;;5040278;28;20041;-59
2022/04/14 09:17:07;;;;;;;2.72;1.15;;;;;;;;;;5024852;28;20075;-59
2022/04/14 09:19:35;;;;;;;3.95;1.52;;;;;;;;;;5038953;28;20045;-61
2022/04/14 09:22:03;;;;;;;4.03;1.60;;;;;;;;;;5042661;28;20155;-61
2022/04/14 09:24:47;;;;;;;3.72;1.38;;;;;;;;;;5039244;28;20596;-60
2022/04/14 09:27:25;;;;;;;6.93;1.83;;;;;;;;;;5039034;28;20067;-59
2022/04/14 09:29:52;;;;;;;2.88;1.40;;;;;;;;;;5039839;28;20056;-61
2022/04/14 09:32:51;;;;;;;4.05;1.35;;;;;;;;;;5039777;28;20465;-59
2022/04/14 09:35:18;;;;;;;5.72;1.75;;;;;;;;;;4993055;28;20100;-60
2022/04/14 09:37:45;;;;;;;3.60;1.48;;;;;;;;;;5040084;28;20784;-59
2022/04/14 09:40:13;;;;;;;3.45;1.42;;;;;;;;;;5039427;28;20071;-60
2022/04/14 09:42:41;;;;;;;4.72;1.95;;;;;;;;;;5039601;28;20051;-60
2022/04/14 09:45:37;;;;;;;3.67;1.67;;;;;;;;;;5039688;28;20319;-59
2022/04/14 09:48:04;;;;;;;3.70;1.88;;;;;;;;;;5026818;28;20045;-59
2022/04/14 09:50:35;;;;;;;4.15;1.60;;;;;;;;;;5020375;28;20041;-60
2022/04/14 09:53:06;;;;;;;3.42;1.40;;;;;;;;;;5040052;28;20045;-60
2022/04/14 09:55:34;;;;;;;6.78;1.77;;;;;;;;;;5038334;28;20135;-60
2022/04/14 09:58:06;;;;;;;4.80;1.38;;;;;;;;;;5041692;28;20048;-61
2022/04/14 10:00:43;;;;;;;3.30;1.63;;;;;;;;;;5040099;28;20079;-60
2022/04/14 10:03:11;;;;;;;5.10;1.88;;;;;;;;;;5040893;28;20499;-62
2022/04/14 10:05:38;;;;;;;8.07;1.80;;;;;;;;;;5038102;28;20461;-60
2022/04/14 10:08:08;;;;;;;6.43;2.00;;;;;;;;;;5039265;28;20045;-61
2022/04/14 10:10:39;;;;;;;6.30;1.95;;;;;;;;;;5039906;28;20029;-61
2022/04/14 10:13:07;;;;;;;3.72;1.70;;;;;;;;;;5039823;28;20132;-59
2022/04/14 10:15:38;;;;;;;3.00;1.42;;;;;;;;;;5038332;28;20055;-60
2022/04/14 10:18:06;;;;;;;3.80;1.70;;;;;;;;;;5038950;28;20147;-60
2022/04/14 10:20:34;;;;;;;4.13;1.73;;;;;;;;;;5040054;28;20040;-61
2022/04/14 10:23:01;;;;;;;3.78;1.63;;;;;;;;;;5035172;28;20507;-59
2022/04/14 10:25:28;;;;;;;3.85;1.70;;;;;;;;;;5040504;28;20036;-61
2022/04/14 10:27:57;;;;;;;3.03;1.23;;;;;;;;;;5043111;28;20398;-61
2022/04/14 10:30:24;;;;;;;3.58;1.92;;;;;;;;;;5042113;28;20052;-59
2022/04/14 10:32:52;;;;;;;3.70;1.70;;;;;;;;;;5043628;28;20041;-60
2022/04/14 10:35:18;;;;;;;3.20;1.42;;;;;;;;;;5040851;28;20033;-60
2022/04/14 10:37:47;;;;;;;2.97;1.10;;;;;;;;;;5021894;28;20044;-60
2022/04/14 10:40:15;;;;;;;3.13;1.33;;;;;;;;;;5042997;28;20095;-60
2022/04/14 10:42:47;;;;;;;6.32;1.00;;;;;;;;;;5043620;28;20047;-60
2022/04/14 10:45:18;;;;;;;3.10;1.38;;;;;;;;;;5041909;28;20041;-59
2022/04/14 10:47:52;;;;;;;3.25;1.35;;;;;;;;;;5042990;28;20052;-61
2022/04/14 10:50:29;;;;;;;10.77;2.20;;;;;;;;;;5042616;28;20041;-60
2022/04/14 10:53:21;;;;;;;5.22;1.75;;;;;;;;;;5024162;28;20056;-61
2022/04/14 10:55:49;;;;;;;4.00;1.85;;;;;;;;;;5043171;28;20056;-60
2022/04/14 10:58:28;;;;;;;2.60;1.30;;;;;;;;;;5043078;28;20128;-61
2022/04/14 11:00:55;;;;;;;5.72;2.00;;;;;;;;;;5043549;28;20037;-60
2022/04/14 11:03:41;;;;;;;3.60;1.73;;;;;;;;;;5042810;28;20060;-60
2022/04/14 11:06:08;;;;;;;4.38;1.95;;;;;;;;;;5041797;28;20532;-60
2022/04/14 11:08:46;;;;;;;4.20;1.98;;;;;;;;;;5041677;28;20140;-60
2022/04/14 11:11:13;;;;;;;6.32;1.52;;;;;;;;;;5042574;28;20052;-59
2022/04/14 11:13:55;;;;;;;3.45;1.48;;;;;;;;;;5041713;28;20045;-61
2022/04/14 11:16:41;;;;;;;4.15;1.88;;;;;;;;;;5042391;28;20053;-61
2022/04/14 11:19:24;;;;;;;3.72;1.92;;;;;;;;;;5043361;28;20053;-60
2022/04/14 11:22:18;;;;;;;4.57;2.22;;;;;;;;;;5041396;28;20055;-60
2022/04/14 11:24:45;;;;;;;5.38;2.03;;;;;;;;;;5041249;28;20499;-59
2022/04/14 11:27:21;;;;;;;2.90;1.52;;;;;;;;;;5041799;28;20060;-61
2022/04/14 11:29:53;;;;;;;6.97;1.52;;;;;;;;;;5022272;28;20049;-61
2022/04/14 11:32:36;;;;;;;3.13;1.50;;;;;;;;;;5043623;28;20475;-60
2022/04/14 11:35:18;;;;;;;3.95;1.63;;;;;;;;;;5039871;28;20033;-62
2022/04/14 11:37:49;;;;;;;1.95;1.00;;;;;;;;;;5041155;28;20378;-59
2022/04/14 11:40:24;;;;;;;2.78;1.27;;;;;;;;;;5042980;28;20044;-61
2022/04/14 11:42:54;;;;;;;3.17;1.67;;;;;;;;;;5042546;28;20124;-61
2022/04/14 11:45:25;;;;;;;4.40;1.88;;;;;;;;;;5041776;28;20079;-60
2022/04/14 11:47:55;;;;;;;3.15;1.52;;;;;;;;;;5042069;28;20540;-60
2022/04/14 11:50:25;;;;;;;3.05;1.73;;;;;;;;;;5041720;28;20060;-59
2022/04/14 11:53:12;;;;;;;2.50;1.25;;;;;;;;;;5042071;28;20037;-61
2022/04/14 11:55:43;;;;;;;3.65;1.60;;;;;;;;;;5042511;28;20410;-61
2022/04/14 11:58:15;;;;;;;3.78;1.85;;;;;;;;;;5042816;28;20028;-61
2022/04/14 12:00:42;;;;;;;4.32;1.85;;;;;;;;;;5041145;28;20339;-61
2022/04/14 12:03:09;;;;;;;4.15;1.25;;;;;;;;;;5044078;28;20056;-60
2022/04/14 12:05:36;;;;;;;5.28;2.03;;;;;;;;;;5040611;28;20041;-61
2022/04/14 12:08:10;;;;;;;3.33;1.48;;;;;;;;;;5043587;28;20053;-61
2022/04/14 12:10:36;;;;;;;5.72;2.63;;;;;;;;;;5040948;28;20048;-60
2022/04/14 12:13:10;;;;;;;5.10;1.98;;;;;;;;;;5041812;28;20484;-61
2022/04/14 12:15:37;;;;;;;4.03;1.70;;;;;;;;;;5041032;28;20044;-61
2022/04/14 12:18:11;;;;;;;5.60;2.22;;;;;;;;;;5041822;28;20080;-62
2022/04/14 12:20:43;;;;;;;4.93;2.25;;;;;;;;;;5042162;28;20116;-62
2022/04/14 12:23:13;;;;;;;4.70;2.30;;;;;;;;;;5042756;28;20090;-62
2022/04/14 12:25:41;;;;;;;4.88;2.28;;;;;;;;;;5040403;28;20045;-62
2022/04/14 12:28:08;;;;;;;12.35;3.00;;;;;;;;;;5040922;28;20068;-61
2022/04/14 12:30:36;;;;;;;5.03;2.55;;;;;;;;;;5037017;28;20086;-61
2022/04/14 12:33:07;;;;;;;9.25;3.00;;;;;;;;;;5041087;28;20094;-59
2022/04/14 12:35:41;;;;;;;5.68;2.97;;;;;;;;;;5038789;28;20103;-60
2022/04/14 12:38:12;;;;;;;4.22;2.25;;;;;;;;;;5040508;28;20048;-60
2022/04/14 12:40:39;;;;;;;6.55;3.00;;;;;;;;;;5019220;28;20029;-61
2022/04/14 12:43:06;;;;;;;14.70;3.00;;;;;;;;;;5041014;28;20048;-60
2022/04/14 12:45:39;;;;;;;6.35;3.22;;;;;;;;;;5039990;28;20123;-62
2022/04/14 12:48:06;;;;;;;7.10;3.17;;;;;;;;;;5042447;28;20910;-61
2022/04/14 12:50:32;;;;;;;6.60;3.38;;;;;;;;;;5052741;28;20037;-62
2022/04/14 12:52:59;;;;;;;7.20;3.35;;;;;;;;;;5055555;28;20053;-63
2022/04/14 12:55:27;;;;;;;5.78;2.83;;;;;;;;;;5047828;28;20087;-59
2022/04/14 12:58:10;;;;;;;7.38;2.92;;;;;;;;;;5045044;28;20040;-61
2022/04/14 13:00:37;;;;;;;5.97;2.93;;;;;;;;;;5050219;28;20119;-65
2022/04/14 13:03:05;;;;;;;7.90;4.22;;;;;;;;;;5055130;28;20037;-61
2022/04/14 13:05:37;;;;;;;8.35;3.35;;;;;;;;;;5044005;28;20765;-62
2022/04/14 13:08:04;;;;;;;5.63;3.03;;;;;;;;;;5042281;28;20135;-60
2022/04/14 13:10:34;;;;;;;8.15;3.47;;;;;;;;;;5040268;28;20081;-59
2022/04/14 13:13:02;;;;;;;7.47;3.17;;;;;;;;;;5042357;28;20052;-60
2022/04/14 13:15:29;;;;;;;5.22;2.70;;;;;;;;;;5038155;28;20041;-62
2022/04/14 13:17:56;;;;;;;7.90;3.42;;;;;;;;;;5039040;28;20488;-60
2022/04/14 13:20:32;;;;;;;8.13;3.50;;;;;;;;;;5040080;28;20091;-61
2022/04/14 13:22:59;;;;;;;5.45;2.72;;;;;;;;;;5041751;28;20370;-63
2022/04/14 13:25:29;;;;;;;6.40;2.83;;;;;;;;;;5039887;28;20033;-61
2022/04/14 13:27:56;;;;;;;5.45;2.47;;;;;;;;;;5038989;28;20083;-60
2022/04/14 13:30:23;;;;;;;16.15;2.95;;;;;;;;;;5038731;28;20636;-60
2022/04/14 13:32:50;;;;;;;4.38;2.70;;;;;;;;;;5040429;28;20045;-61
2022/04/14 13:35:17;;;;;;;6.00;2.90;;;;;;;;;;5037291;28;20083;-60
2022/04/14 13:37:44;;;;;;;7.63;2.75;;;;;;;;;;5038250;28;20057;-61
2022/04/14 13:40:12;;;;;;;5.20;2.53;;;;;;;;;;5040169;28;20044;-60
2022/04/14 13:42:39;;;;;;;8.75;2.35;;;;;;;;;;5038216;28;20101;-61
2022/04/14 13:45:09;;;;;;;6.03;2.50;;;;;;;;;;5040409;28;20439;-61
2022/04/14 13:47:38;;;;;;;3.88;1.55;;;;;;;;;;5038313;28;20106;-62
2022/04/14 13:50:05;;;;;;;2.70;1.50;;;;;;;;;;5039863;28;20071;-61
2022/04/14 13:52:32;;;;;;;4.20;1.52;;;;;;;;;;5038311;28;20052;-61
2022/04/14 13:54:59;;;;;;;5.93;2.60;;;;;;;;;;5038942;28;20036;-62
2022/04/14 13:57:26;;;;;;;5.57;1.67;;;;;;;;;;5039632;28;20045;-60
2022/04/14 13:59:52;;;;;;;6.90;2.30;;;;;;;;;;5044191;28;20045;-61
2022/04/14 14:02:19;;;;;;;3.88;2.10;;;;;;;;;;5044940;28;20032;-60
2022/04/14 14:04:46;;;;;;;2.70;1.13;;;;;;;;;;5042366;28;20105;-61
2022/04/14 14:07:13;;;;;;;9.18;2.63;;;;;;;;;;5042839;28;20098;-60
2022/04/14 14:09:39;;;;;;;2.08;1.10;;;;;;;;;;5042825;28;20037;-60
2022/04/14 14:12:07;;;;;;;5.65;1.48;;;;;;;;;;5044032;28;20060;-59
2022/04/14 14:14:34;;;;;;;2.33;1.13;;;;;;;;;;5041350;28;20087;-59
2022/04/14 14:17:01;;;;;;;17.92;2.22;;;;;;;;;;5043608;28;20040;-61
2022/04/14 14:19:28;;;;;;;8.55;2.60;;;;;;;;;;5041631;28;20064;-60
2022/04/14 14:21:55;;;;;;;3.97;1.35;;;;;;;;;;5044068;28;20037;-59
2022/04/14 14:24:23;;;;;;;6.75;2.40;;;;;;;;;;5041925;28;20037;-60
2022/04/14 14:26:49;;;;;;;2.50;0.88;;;;;;;;;;5042710;28;20127;-60
2022/04/14 14:29:16;;;;;;;6.75;2.50;;;;;;;;;;5043104;28;20037;-61
2022/04/14 14:31:45;;;;;;;6.22;1.98;;;;;;;;;;5042104;28;20044;-60
2022/04/14 14:34:12;;;;;;;4.93;1.95;;;;;;;;;;5042409;28;20067;-60
2022/04/14 14:36:39;;;;;;;2.90;1.98;;;;;;;;;;5042939;28;20041;-61
2022/04/14 14:39:06;;;;;;;5.05;2.17;;;;;;;;;;5040912;28;20116;-61
2022/04/14 14:41:32;;;;;;;6.85;3.22;;;;;;;;;;5041775;28;20033;-61
2022/04/14 14:44:01;;;;;;;4.63;2.10;;;;;;;;;;5041802;28;20029;-61
2022/04/14 14:46:27;;;;;;;3.55;2.03;;;;;;;;;;5041536;28;20041;-61
2022/04/14 14:48:54;;;;;;;4.15;1.55;;;;;;;;;;5043898;28;20106;-61
2022/04/14 14:51:21;;;;;;;3.50;1.58;;;;;;;;;;5041536;28;20037;-60